createdAt,value
2018-02-21T00:00:57.338Z,21.10
2018-02-21T00:03:24.794Z,17.02
2018-02-21T00:05:52.228Z,19.33
2018-02-21T00:08:19.680Z,21.23
2018-02-21T00:10:47.899Z,19.05
2018-02-21T00:13:15.341Z,20.00
2018-02-21T00:15:42.790Z,19.90
2018-02-21T00:18:11.023Z,21.08
2018-02-21T00:20:38.465Z,20.20
2018-02-21T00:23:05.910Z,17.83
2018-02-21T00:25:33.373Z,20.15
2018-02-21T00:28:00.844Z,18.95
2018-02-21T00:30:28.273Z,20.73
2018-02-21T00:32:56.503Z,20.60
2018-02-21T00:35:23.954Z,18.48
2018-02-21T00:37:51.412Z,20.50
2018-02-21T00:40:18.857Z,17.43
2018-02-21T00:42:46.320Z,19.25
2018-02-21T00:45:13.777Z,21.33
2018-02-21T00:47:41.230Z,20.12
2018-02-21T00:50:09.440Z,20.00
2018-02-21T00:52:36.906Z,20.15
2018-02-21T00:55:04.371Z,19.77
2018-02-21T00:57:31.819Z,21.12
2018-02-21T00:59:59.269Z,19.50
2018-02-21T01:02:26.726Z,19.25
2018-02-21T01:04:54.181Z,17.10
2018-02-21T01:07:22.414Z,19.33
2018-02-21T01:09:49.860Z,18.00
2018-02-21T01:12:17.327Z,19.85
2018-02-21T01:14:44.794Z,19.98
2018-02-21T01:17:12.245Z,19.23
2018-02-21T01:19:39.692Z,20.42
2018-02-21T01:22:07.133Z,18.92
2018-02-21T01:24:35.349Z,19.35
2018-02-21T01:27:02.811Z,17.80
2018-02-21T01:29:30.253Z,20.05
2018-02-21T01:31:57.711Z,20.27
2018-02-21T01:34:25.184Z,18.80
2018-02-21T01:36:52.629Z,19.42
2018-02-21T01:39:20.841Z,18.40
2018-02-21T01:41:48.288Z,21.33
2018-02-21T01:44:15.760Z,19.05
2018-02-21T01:46:43.203Z,19.83
2018-02-21T01:49:10.666Z,19.42
2018-02-21T01:51:38.125Z,17.35
2018-02-21T01:54:06.350Z,18.55
2018-02-21T01:56:33.807Z,18.52
2018-02-21T01:59:01.275Z,18.55
2018-02-21T02:01:28.740Z,19.45
2018-02-21T02:03:56.205Z,17.05
2018-02-21T02:06:23.659Z,19.85
2018-02-21T02:08:51.123Z,18.62
2018-02-21T02:11:18.599Z,19.60
2018-02-21T02:13:46.055Z,20.02
2018-02-21T02:16:14.270Z,19.95
2018-02-21T02:18:42.489Z,18.98
2018-02-21T02:21:09.948Z,20.20
2018-02-21T02:23:37.407Z,19.60
2018-02-21T02:26:04.866Z,19.52
2018-02-21T02:28:32.322Z,19.17
2018-02-21T02:30:59.770Z,20.00
2018-02-21T02:33:27.990Z,20.15
2018-02-21T02:35:55.527Z,18.35
2018-02-21T02:38:34.878Z,19.80
2018-02-21T02:41:02.326Z,20.42
2018-02-21T02:43:29.778Z,21.30
2018-02-21T02:45:57.246Z,19.37
2018-02-21T02:48:24.688Z,20.45
2018-02-21T02:50:52.923Z,18.52
2018-02-21T02:53:20.387Z,19.90
2018-02-21T02:55:47.868Z,20.52
2018-02-21T02:58:15.315Z,20.00
2018-02-21T03:00:42.787Z,18.15
2018-02-21T03:03:10.237Z,20.30
2018-02-21T03:05:37.703Z,20.37
2018-02-21T03:08:05.144Z,19.17
2018-02-21T03:10:32.607Z,18.85
2018-02-21T03:13:00.053Z,20.48
2018-02-21T03:15:27.505Z,21.95
2018-02-21T03:17:54.948Z,21.75
2018-02-21T03:20:23.167Z,20.62
2018-02-21T03:22:50.609Z,20.45
2018-02-21T03:25:18.075Z,20.70
2018-02-21T03:27:45.516Z,17.95
2018-02-21T03:30:13.733Z,20.20
2018-02-21T03:32:41.168Z,17.55
2018-02-21T03:35:09.392Z,19.67
2018-02-21T03:37:36.851Z,20.65
2018-02-21T03:40:04.320Z,19.75
2018-02-21T03:42:31.772Z,18.45
2018-02-21T03:44:59.240Z,21.15
2018-02-21T03:47:26.711Z,17.62
2018-02-21T03:49:54.160Z,20.40
2018-02-21T03:52:21.604Z,20.85
2018-02-21T03:54:49.058Z,21.25
2018-02-21T03:57:16.505Z,23.08
2018-02-21T03:59:44.728Z,21.12
2018-02-21T04:02:12.183Z,18.65
2018-02-21T04:04:39.625Z,21.17
2018-02-21T04:07:07.082Z,19.55
2018-02-21T04:09:35.296Z,20.23
2018-02-21T04:12:02.752Z,19.52
2018-02-21T04:14:30.199Z,21.98
2018-02-21T04:16:57.644Z,20.02
2018-02-21T04:19:25.127Z,18.90
2018-02-21T04:21:52.572Z,20.70
2018-02-21T04:24:20.023Z,21.58
2018-02-21T04:26:48.258Z,19.65
2018-02-21T04:29:15.708Z,20.77
2018-02-21T04:31:43.163Z,19.62
2018-02-21T04:34:10.619Z,19.98
2018-02-21T04:36:38.091Z,19.37
2018-02-21T04:39:05.542Z,18.92
2018-02-21T04:41:32.992Z,19.77
2018-02-21T04:44:00.432Z,20.02
2018-02-21T04:46:28.681Z,19.02
2018-02-21T04:48:56.129Z,17.90
2018-02-21T04:51:23.587Z,18.30
2018-02-21T04:53:51.042Z,20.17
2018-02-21T04:56:24.321Z,20.00
2018-02-21T04:58:57.462Z,17.50
2018-02-21T05:01:24.926Z,22.30
2018-02-21T05:03:52.382Z,20.35
2018-02-21T05:06:19.845Z,19.62
2018-02-21T05:08:47.293Z,22.58
2018-02-21T05:11:14.745Z,20.62
2018-02-21T05:13:42.196Z,19.67
2018-02-21T05:16:09.653Z,19.85
2018-02-21T05:18:37.100Z,20.42
2018-02-21T05:21:05.309Z,19.77
2018-02-21T05:23:32.773Z,20.70
2018-02-21T05:26:00.238Z,19.40
2018-02-21T05:28:27.703Z,17.90
2018-02-21T05:30:55.158Z,18.23
2018-02-21T05:33:22.604Z,19.95
2018-02-21T05:35:50.048Z,22.17
2018-02-21T05:38:18.279Z,21.90
2018-02-21T05:40:45.731Z,21.30
2018-02-21T05:43:13.191Z,18.60
2018-02-21T05:45:40.636Z,20.75
2018-02-21T05:48:08.121Z,20.02
2018-02-21T05:50:35.579Z,19.80
2018-02-21T05:53:03.090Z,21.10
2018-02-21T05:55:30.506Z,20.60
2018-02-21T05:57:58.063Z,19.17
2018-02-21T06:00:25.488Z,19.27
2018-02-21T06:02:53.717Z,21.17
2018-02-21T06:05:21.168Z,19.90
2018-02-21T06:07:48.635Z,20.88
2018-02-21T06:10:16.090Z,21.50
2018-02-21T06:12:43.570Z,21.40
2018-02-21T06:15:11.060Z,21.02
2018-02-21T06:17:38.527Z,21.65
2018-02-21T06:20:05.968Z,19.77
2018-02-21T06:22:33.610Z,19.23
2018-02-21T06:25:01.077Z,19.83
2018-02-21T06:27:28.536Z,20.90
2018-02-21T06:29:55.996Z,20.88
2018-02-21T06:32:23.561Z,21.02
2018-02-21T06:34:51.764Z,21.35
2018-02-21T06:37:19.231Z,21.10
2018-02-21T06:39:46.678Z,22.52
2018-02-21T06:42:14.125Z,20.80
2018-02-21T06:44:41.597Z,20.58
2018-02-21T06:47:09.050Z,18.75
2018-02-21T06:49:36.530Z,19.92
2018-02-21T06:52:03.969Z,21.70
2018-02-21T06:54:31.438Z,22.45
2018-02-21T06:56:58.895Z,21.55
2018-02-21T06:59:26.341Z,21.83
2018-02-21T07:01:53.811Z,21.33
2018-02-21T07:04:21.253Z,20.35
2018-02-21T07:06:49.479Z,23.08
2018-02-21T07:09:16.934Z,19.80
2018-02-21T07:11:44.399Z,19.85
2018-02-21T07:14:11.880Z,20.70
2018-02-21T07:16:39.319Z,22.52
2018-02-21T07:19:06.791Z,20.80
2018-02-21T07:21:34.228Z,23.62
2018-02-21T07:24:01.703Z,21.80
2018-02-21T07:26:29.165Z,19.80
2018-02-21T07:28:56.616Z,22.35
2018-02-21T07:31:24.062Z,22.98
2018-02-21T07:33:52.275Z,22.00
2018-02-21T07:36:19.734Z,21.40
2018-02-21T07:38:47.194Z,18.67
2018-02-21T07:41:14.659Z,21.15
2018-02-21T07:43:42.125Z,19.60
2018-02-21T07:46:09.565Z,20.17
2018-02-21T07:48:37.038Z,20.12
2018-02-21T07:51:04.518Z,23.23
2018-02-21T07:53:31.971Z,20.27
2018-02-21T07:55:59.427Z,20.45
2018-02-21T07:58:26.895Z,21.98
2018-02-21T08:00:54.346Z,18.10
2018-02-21T08:03:21.820Z,19.85
2018-02-21T08:05:49.261Z,21.70
2018-02-21T08:08:16.719Z,21.25
2018-02-21T08:10:44.950Z,20.60
2018-02-21T08:13:12.423Z,19.15
2018-02-21T08:15:39.861Z,19.98
2018-02-21T08:18:07.311Z,16.12
2018-02-21T08:20:34.762Z,20.77
2018-02-21T08:23:02.213Z,20.67
2018-02-21T08:25:29.677Z,20.95
2018-02-21T08:27:57.113Z,20.48
2018-02-21T08:30:25.337Z,22.27
2018-02-21T08:32:52.789Z,22.08
2018-02-21T08:35:20.253Z,20.67
2018-02-21T08:37:47.704Z,19.67
2018-02-21T08:40:15.912Z,21.55
2018-02-21T08:42:43.389Z,21.10
2018-02-21T08:45:10.839Z,21.73
2018-02-21T08:47:38.276Z,21.55
2018-02-21T08:50:05.737Z,21.50
2018-02-21T08:52:33.191Z,23.40
2018-02-21T08:55:00.636Z,22.73
2018-02-21T08:57:28.842Z,22.10
2018-02-21T08:59:56.326Z,23.10
2018-02-21T09:02:23.775Z,23.83
2018-02-21T09:04:51.271Z,20.60
2018-02-21T09:07:18.750Z,22.85
2018-02-21T09:09:46.222Z,24.27
2018-02-21T09:12:13.672Z,24.02
2018-02-21T09:14:41.114Z,26.83
2018-02-21T09:17:08.581Z,27.67
2018-02-21T09:19:36.071Z,26.30
2018-02-21T09:22:03.525Z,25.40
2018-02-21T09:24:30.999Z,26.77
2018-02-21T09:26:58.460Z,25.23
2018-02-21T09:29:25.905Z,26.40
2018-02-21T09:31:53.367Z,25.12
2018-02-21T09:34:20.809Z,25.12
2018-02-21T09:36:48.257Z,27.17
2018-02-21T09:39:15.709Z,28.80
2018-02-21T09:41:43.159Z,26.35
2018-02-21T09:44:10.601Z,27.75
2018-02-21T09:46:38.834Z,26.05
2018-02-21T09:49:06.289Z,25.83
2018-02-21T09:51:33.783Z,24.45
2018-02-21T09:54:01.247Z,24.42
2018-02-21T09:56:28.717Z,24.40
2018-02-21T09:58:56.169Z,22.95
2018-02-21T10:01:23.626Z,23.98
2018-02-21T10:03:52.042Z,26.33
2018-02-21T10:06:19.486Z,24.63
2018-02-21T10:08:46.928Z,26.33
2018-02-21T10:11:14.391Z,23.15
2018-02-21T10:13:41.815Z,24.97
2018-02-21T10:16:09.284Z,26.63
2018-02-21T10:18:36.743Z,24.27
2018-02-21T10:21:04.185Z,27.90
2018-02-21T10:23:32.392Z,24.83
2018-02-21T10:25:59.858Z,26.90
2018-02-21T10:28:27.302Z,24.73
2018-02-21T10:30:54.749Z,25.85
2018-02-21T10:33:22.979Z,25.20
2018-02-21T10:35:50.427Z,25.40
2018-02-21T10:38:17.867Z,23.63
2018-02-21T10:40:45.327Z,24.43
2018-02-21T10:43:13.533Z,23.80
2018-02-21T10:45:40.994Z,24.53
2018-02-21T10:48:08.436Z,22.23
2018-02-21T10:50:35.892Z,25.13
2018-02-21T10:53:04.096Z,25.57
2018-02-21T10:55:31.535Z,24.47
2018-02-21T10:57:59.757Z,27.13
2018-02-21T11:00:32.845Z,27.27
2018-02-21T11:03:00.289Z,25.03
2018-02-21T11:05:27.746Z,24.27
2018-02-21T11:07:55.198Z,25.50
2018-02-21T11:10:23.394Z,28.53
2018-02-21T11:12:50.838Z,26.37
2018-02-21T11:15:18.273Z,26.03
2018-02-21T11:17:45.735Z,26.57
2018-02-21T11:20:13.177Z,23.67
2018-02-21T11:22:40.624Z,27.20
2018-02-21T11:25:08.067Z,25.60
2018-02-21T11:27:35.517Z,29.60
2018-02-21T11:30:02.957Z,27.23
2018-02-21T11:32:31.183Z,29.27
2018-02-21T11:34:58.625Z,24.97
2018-02-21T11:37:26.082Z,25.63
2018-02-21T11:39:53.505Z,26.10
2018-02-21T11:42:20.967Z,27.47
2018-02-21T11:44:48.400Z,25.50
2018-02-21T11:47:15.845Z,26.73
2018-02-21T11:49:43.281Z,25.50
2018-02-21T11:52:11.498Z,26.10
2018-02-21T11:54:38.946Z,26.43
2018-02-21T11:57:06.394Z,25.57
2018-02-21T11:59:33.828Z,24.63
2018-02-21T12:02:01.266Z,22.27
2018-02-21T12:04:28.717Z,22.50
2018-02-21T12:06:56.158Z,23.70
2018-02-21T12:09:23.604Z,22.03
2018-02-21T12:11:51.063Z,24.60
2018-02-21T12:14:18.505Z,21.80
2018-02-21T12:16:46.720Z,19.30
2018-02-21T12:19:14.176Z,21.07
2018-02-21T12:21:41.612Z,20.23
2018-02-21T12:24:09.823Z,19.67
2018-02-21T12:26:37.294Z,23.13
2018-02-21T12:29:04.773Z,20.80
2018-02-21T12:31:32.218Z,21.63
2018-02-21T12:33:59.690Z,21.60
2018-02-21T12:36:27.157Z,21.50
2018-02-21T12:39:00.422Z,22.27
2018-02-21T12:41:33.582Z,20.77
2018-02-21T12:44:01.803Z,21.90
2018-02-21T12:46:29.253Z,21.10
2018-02-21T12:48:56.706Z,21.40
2018-02-21T12:51:24.896Z,20.13
2018-02-21T12:53:52.341Z,23.43
2018-02-21T12:56:20.540Z,20.43
2018-02-21T12:58:47.984Z,21.63
2018-02-21T13:01:16.208Z,21.87
2018-02-21T13:03:43.658Z,20.97
2018-02-21T13:06:11.103Z,22.73
2018-02-21T13:08:38.559Z,21.30
2018-02-21T13:11:06.020Z,24.33
2018-02-21T13:13:34.233Z,22.47
2018-02-21T13:16:01.684Z,20.30
2018-02-21T13:18:29.196Z,25.90
2018-02-21T13:20:56.696Z,21.77
2018-02-21T13:23:24.909Z,22.20
2018-02-21T13:25:52.406Z,23.90
2018-02-21T13:28:19.802Z,24.00
2018-02-21T13:30:47.232Z,21.70
2018-02-21T13:33:15.472Z,22.70
2018-02-21T13:35:42.919Z,23.57
2018-02-21T13:38:10.392Z,23.33
2018-02-21T13:40:37.827Z,22.87
2018-02-21T13:43:05.273Z,22.70
2018-02-21T13:45:33.473Z,22.97
2018-02-21T13:48:00.931Z,24.60
2018-02-21T13:50:28.362Z,24.60
2018-02-21T13:52:55.817Z,21.70
2018-02-21T13:55:23.287Z,22.10
2018-02-21T13:57:50.706Z,22.73
2018-02-21T14:00:18.164Z,20.67
2018-02-21T14:02:45.620Z,20.93
2018-02-21T14:05:13.074Z,22.00
2018-02-21T14:07:40.519Z,19.60
2018-02-21T14:10:08.748Z,22.67
2018-02-21T14:12:36.199Z,22.37
2018-02-21T14:15:03.663Z,19.37
2018-02-21T14:17:31.141Z,22.30
2018-02-21T14:19:58.556Z,20.50
2018-02-21T14:22:25.989Z,20.90
2018-02-21T14:24:53.433Z,21.53
2018-02-21T14:27:20.888Z,20.70
2018-02-21T14:29:48.347Z,21.20
2018-02-21T14:32:15.794Z,21.17
2018-02-21T14:34:43.244Z,20.00
2018-02-21T14:37:10.688Z,20.10
2018-02-21T14:39:38.133Z,19.60
2018-02-21T14:42:06.355Z,20.40
2018-02-21T14:44:33.815Z,19.40
2018-02-21T14:47:01.259Z,20.50
2018-02-21T14:49:28.717Z,20.80
2018-02-21T14:51:56.978Z,18.80
2018-02-21T14:54:25.204Z,17.93
2018-02-21T14:56:52.647Z,18.97
2018-02-21T14:59:20.122Z,19.73
2018-02-21T15:01:47.606Z,19.77
2018-02-21T15:04:15.082Z,17.90
2018-02-21T15:06:42.534Z,19.77
2018-02-21T15:09:09.987Z,19.53
2018-02-21T15:11:37.436Z,17.77
2018-02-21T15:14:04.886Z,18.60
2018-02-21T15:16:32.348Z,17.70
2018-02-21T15:18:59.826Z,18.30
2018-02-21T15:21:27.282Z,19.40
2018-02-21T15:23:54.726Z,20.50
2018-02-21T15:26:22.213Z,22.00
2018-02-21T15:28:49.686Z,22.07
2018-02-21T15:31:17.867Z,23.60
2018-02-21T15:33:45.316Z,23.87
2018-02-21T15:36:12.757Z,22.67
2018-02-21T15:38:40.225Z,24.87
2018-02-21T15:41:08.430Z,24.30
2018-02-21T15:43:35.875Z,24.00
2018-02-21T15:46:03.343Z,27.00
2018-02-21T15:48:30.793Z,24.13
2018-02-21T15:50:58.257Z,25.27
2018-02-21T15:53:25.711Z,27.43
2018-02-21T15:55:53.172Z,26.80
2018-02-21T15:58:20.610Z,26.93
2018-02-21T16:00:48.840Z,27.17
2018-02-21T16:03:16.292Z,26.53
2018-02-21T16:05:43.763Z,26.50
2018-02-21T16:08:11.213Z,26.73
2018-02-21T16:10:39.098Z,27.30
2018-02-21T16:13:06.559Z,26.07
2018-02-21T16:15:34.008Z,25.63
2018-02-21T16:18:01.446Z,29.17
2018-02-21T16:20:29.672Z,26.97
2018-02-21T16:22:57.151Z,26.20
2018-02-21T16:25:24.607Z,27.90
2018-02-21T16:27:52.058Z,27.13
2018-02-21T16:30:19.512Z,27.53
2018-02-21T16:32:46.982Z,26.70
2018-02-21T16:35:14.437Z,27.90
2018-02-21T16:37:41.891Z,25.90
2018-02-21T16:40:09.356Z,24.47
2018-02-21T16:42:36.809Z,26.30
2018-02-21T16:45:04.276Z,25.90
2018-02-21T16:47:31.756Z,25.77
2018-02-21T16:49:59.208Z,24.40
2018-02-21T16:52:26.676Z,27.87
2018-02-21T16:54:55.120Z,25.73
2018-02-21T16:57:23.362Z,26.80
2018-02-21T16:59:50.804Z,27.97
2018-02-21T17:02:18.264Z,24.87
2018-02-21T17:04:45.719Z,25.40
2018-02-21T17:07:13.183Z,25.20
2018-02-21T17:09:40.628Z,26.13
2018-02-21T17:12:08.091Z,26.77
2018-02-21T17:14:35.539Z,23.10
2018-02-21T17:17:03.763Z,23.53
2018-02-21T17:19:31.224Z,24.20
2018-02-21T17:21:58.686Z,25.53
2018-02-21T17:24:26.138Z,23.97
2018-02-21T17:26:53.595Z,26.90
2018-02-21T17:29:21.048Z,25.20
2018-02-21T17:31:48.507Z,25.23
2018-02-21T17:34:16.004Z,26.47
2018-02-21T17:36:43.445Z,23.93
2018-02-21T17:39:10.888Z,23.80
2018-02-21T17:41:38.347Z,24.13
2018-02-21T17:44:06.587Z,23.40
2018-02-21T17:46:34.023Z,22.17
2018-02-21T17:49:01.475Z,21.10
2018-02-21T17:51:28.946Z,21.40
2018-02-21T17:53:56.403Z,21.30
2018-02-21T17:56:24.878Z,19.07
2018-02-21T17:58:52.341Z,19.23
2018-02-21T18:01:19.807Z,20.30
2018-02-21T18:03:47.252Z,21.73
2018-02-21T18:06:15.491Z,21.17
2018-02-21T18:08:42.934Z,21.13
2018-02-21T18:11:11.151Z,19.60
2018-02-21T18:13:39.364Z,18.77
2018-02-21T18:16:06.810Z,18.87
2018-02-21T18:18:35.036Z,17.37
2018-02-21T18:21:02.487Z,19.77
2018-02-21T18:23:29.942Z,18.97
2018-02-21T18:25:57.396Z,19.07
2018-02-21T18:28:24.849Z,18.67
2018-02-21T18:30:52.281Z,15.73
2018-02-21T18:33:20.503Z,17.07
2018-02-21T18:35:47.933Z,15.97
2018-02-21T18:38:16.144Z,16.70
2018-02-21T18:40:43.585Z,15.47
2018-02-21T18:43:11.029Z,13.67
2018-02-21T18:45:39.237Z,14.33
2018-02-21T18:48:06.672Z,14.60
2018-02-21T18:50:34.888Z,13.93
2018-02-21T18:53:02.352Z,13.77
2018-02-21T18:55:29.794Z,14.67
2018-02-21T18:57:57.253Z,12.60
2018-02-21T19:00:25.455Z,14.67
2018-02-21T19:02:52.901Z,13.37
2018-02-21T19:05:20.355Z,14.20
2018-02-21T19:07:48.562Z,15.17
2018-02-21T19:10:15.997Z,15.77
2018-02-21T19:12:43.466Z,16.50
2018-02-21T19:15:11.685Z,16.43
2018-02-21T19:17:39.133Z,15.70
2018-02-21T19:20:06.587Z,15.53
2018-02-21T19:22:34.051Z,15.87
2018-02-21T19:25:01.496Z,15.37
2018-02-21T19:27:29.723Z,15.60
2018-02-21T19:29:57.163Z,13.70
2018-02-21T19:32:24.601Z,14.43
2018-02-21T19:34:52.062Z,12.00
2018-02-21T19:37:20.331Z,14.17
2018-02-21T19:39:47.739Z,13.07
2018-02-21T19:42:15.173Z,14.37
2018-02-21T19:44:42.624Z,14.23
2018-02-21T19:47:10.064Z,13.50
2018-02-21T19:49:37.531Z,13.00
2018-02-21T19:52:04.985Z,13.73
2018-02-21T19:54:32.452Z,13.90
2018-02-21T19:56:59.900Z,14.37
2018-02-21T19:59:28.250Z,12.60
2018-02-21T20:01:55.689Z,15.07
2018-02-21T20:04:23.148Z,14.33
2018-02-21T20:06:50.607Z,15.20
2018-02-21T20:09:18.073Z,14.33
2018-02-21T20:11:45.524Z,13.33
2018-02-21T20:14:13.739Z,13.73
2018-02-21T20:16:41.220Z,14.87
2018-02-21T20:19:08.649Z,16.03
2018-02-21T20:21:36.110Z,14.63
2018-02-21T20:24:03.563Z,17.10
2018-02-21T20:26:31.007Z,16.50
2018-02-21T20:28:59.213Z,17.20
2018-02-21T20:31:26.690Z,14.27
2018-02-21T20:33:54.169Z,15.03
2018-02-21T20:36:21.593Z,15.07
2018-02-21T20:38:49.043Z,16.03
2018-02-21T20:41:17.253Z,16.37
2018-02-21T20:43:44.721Z,16.03
2018-02-21T20:46:12.160Z,16.20
2018-02-21T20:48:39.617Z,15.80
2018-02-21T20:51:07.066Z,15.85
2018-02-21T20:53:35.266Z,15.00
2018-02-21T20:56:02.724Z,14.70
2018-02-21T20:58:30.170Z,15.20
2018-02-21T21:00:58.382Z,14.80
2018-02-21T21:03:25.820Z,14.90
2018-02-21T21:05:53.296Z,16.30
2018-02-21T21:08:20.752Z,15.90
2018-02-21T21:10:48.208Z,14.43
2018-02-21T21:13:15.653Z,15.87
2018-02-21T21:15:43.902Z,17.47
2018-02-21T21:18:11.304Z,16.08
2018-02-21T21:20:39.533Z,15.90
2018-02-21T21:23:06.974Z,16.70
2018-02-21T21:25:34.425Z,16.80
2018-02-21T21:28:01.917Z,14.60
2018-02-21T21:30:30.069Z,15.40
2018-02-21T21:32:57.508Z,14.18
2018-02-21T21:35:25.725Z,16.07
2018-02-21T21:37:53.203Z,14.83
2018-02-21T21:40:20.626Z,16.05
2018-02-21T21:42:48.079Z,15.93
2018-02-21T21:45:16.313Z,15.50
2018-02-21T21:47:43.748Z,18.55
2018-02-21T21:50:11.199Z,16.13
2018-02-21T21:52:38.633Z,18.70
2018-02-21T21:55:06.856Z,16.25
2018-02-21T21:57:34.296Z,16.62
2018-02-21T22:00:01.754Z,18.10
2018-02-21T22:02:29.957Z,18.12
2018-02-21T22:04:57.401Z,16.67
2018-02-21T22:07:24.840Z,16.53
2018-02-21T22:09:53.064Z,18.00
2018-02-21T22:12:20.500Z,16.42
2018-02-21T22:14:47.953Z,16.75
2018-02-21T22:17:16.176Z,17.17
2018-02-21T22:19:43.612Z,16.10
2018-02-21T22:22:11.067Z,15.67
2018-02-21T22:24:38.521Z,16.47
2018-02-21T22:27:06.728Z,16.83
2018-02-21T22:29:34.171Z,14.82
2018-02-21T22:32:01.661Z,15.02
2018-02-21T22:37:32.811Z,17.37
2018-02-21T22:40:00.279Z,15.05
2018-02-21T22:42:27.747Z,15.32
2018-02-21T22:44:55.193Z,15.38
2018-02-21T22:47:23.411Z,15.45
2018-02-21T22:49:50.866Z,16.20
2018-02-21T22:52:18.338Z,16.52
2018-02-21T22:54:45.784Z,14.87
2018-02-21T22:57:13.237Z,13.68
2018-02-21T22:59:40.687Z,13.13
2018-02-21T23:02:08.136Z,12.85
2018-02-21T23:04:35.596Z,13.23
2018-02-21T23:07:03.050Z,14.65
2018-02-21T23:09:30.538Z,12.85
2018-02-21T23:11:58.000Z,15.10
2018-02-21T23:14:25.454Z,14.20
2018-02-21T23:16:52.923Z,15.57
2018-02-21T23:19:20.394Z,15.40
2018-02-21T23:21:47.852Z,15.00
2018-02-21T23:24:15.289Z,17.47
2018-02-21T23:26:42.732Z,14.43
2018-02-21T23:29:10.190Z,16.30
2018-02-21T23:31:38.414Z,15.32
2018-02-21T23:34:05.853Z,15.77
2018-02-21T23:36:33.325Z,16.33
2018-02-21T23:39:00.765Z,16.55
2018-02-21T23:41:28.220Z,15.35
2018-02-21T23:43:56.433Z,13.80
2018-02-21T23:46:23.930Z,13.32
2018-02-21T23:48:51.325Z,14.52
2018-02-21T23:51:19.568Z,13.45
2018-02-21T23:53:47.020Z,13.88
2018-02-21T23:56:14.485Z,14.82
2018-02-21T23:58:42.696Z,15.70
